createdAt,value
2023-05-04T00:00:59.453Z,64.52
2023-05-04T00:03:26.148Z,65.28
2023-05-04T00:05:52.838Z,66.31
2023-05-04T00:08:19.383Z,65.19
2023-05-04T00:10:45.959Z,67.10
2023-05-04T00:13:12.622Z,66.99
2023-05-04T00:15:39.300Z,64.60
2023-05-04T00:18:05.847Z,63.78
2023-05-04T00:20:32.497Z,64.43
2023-05-04T00:22:59.054Z,64.03
2023-05-04T00:25:25.874Z,64.94
2023-05-04T00:27:52.386Z,64.37
2023-05-04T00:30:21.744Z,65.77
2023-05-04T00:32:49.231Z,66.15
2023-05-04T00:35:16.310Z,66.69
2023-05-04T00:37:43.848Z,65.85
2023-05-04T00:40:10.743Z,65.84
2023-05-04T00:42:37.284Z,65.11
2023-05-04T00:45:04.002Z,64.03
2023-05-04T00:47:30.598Z,62.81
2023-05-04T00:49:57.258Z,62.82
2023-05-04T00:52:24.207Z,63.00
2023-05-04T00:54:52.021Z,62.73
2023-05-04T00:57:18.550Z,62.84
2023-05-04T00:59:45.159Z,64.13
2023-05-04T01:02:11.696Z,64.99
2023-05-04T01:04:38.372Z,65.10
2023-05-04T01:07:19.999Z,64.59
2023-05-04T01:10:07.306Z,64.27
2023-05-04T01:12:34.011Z,63.54
2023-05-04T01:15:00.793Z,64.47
2023-05-04T01:17:28.715Z,64.28
2023-05-04T01:19:55.329Z,66.05
2023-05-04T01:22:22.153Z,66.04
2023-05-04T01:24:49.645Z,65.17
2023-05-04T01:27:25.445Z,64.22
2023-05-04T01:30:21.560Z,64.79
2023-05-04T01:32:49.651Z,64.93
2023-05-04T01:35:16.356Z,64.64
2023-05-04T01:37:43.066Z,64.89
2023-05-04T01:40:09.862Z,65.85
2023-05-04T01:42:36.592Z,65.21
2023-05-04T01:45:04.705Z,64.94
2023-05-04T01:47:31.817Z,65.73
2023-05-04T01:49:58.495Z,65.30
2023-05-04T01:52:25.065Z,65.62
2023-05-04T01:54:51.629Z,65.44
2023-05-04T01:57:18.194Z,65.56
2023-05-04T01:59:44.763Z,65.73
2023-05-04T02:02:11.502Z,65.77
2023-05-04T02:04:38.137Z,65.39
2023-05-04T02:07:04.789Z,65.59
2023-05-04T02:09:31.857Z,65.60
2023-05-04T02:11:58.440Z,66.84
2023-05-04T02:14:25.002Z,66.38
2023-05-04T02:16:51.997Z,65.33
2023-05-04T02:19:18.536Z,65.56
2023-05-04T02:21:45.222Z,65.09
2023-05-04T02:24:11.878Z,65.00
2023-05-04T02:26:39.712Z,64.41
2023-05-04T02:29:06.375Z,64.73
2023-05-04T02:31:34.208Z,64.41
2023-05-04T02:34:01.603Z,65.33
2023-05-04T02:36:29.738Z,65.50
2023-05-04T02:38:56.304Z,65.18
2023-05-04T02:41:22.924Z,65.54
2023-05-04T02:43:52.144Z,65.70
2023-05-04T02:46:20.193Z,69.12
2023-05-04T02:48:46.843Z,68.29
2023-05-04T02:51:13.419Z,67.17
2023-05-04T02:53:39.981Z,67.24
2023-05-04T02:56:06.857Z,68.21
2023-05-04T02:58:33.390Z,67.69
2023-05-04T03:01:00.109Z,66.51
2023-05-04T03:03:26.936Z,65.62
2023-05-04T03:05:53.593Z,65.59
2023-05-04T03:08:20.144Z,65.95
2023-05-04T03:10:46.738Z,65.72
2023-05-04T03:13:13.314Z,66.21
2023-05-04T03:15:41.306Z,65.59
2023-05-04T03:18:08.017Z,67.24
2023-05-04T03:20:36.098Z,66.04
2023-05-04T03:23:02.842Z,67.79
2023-05-04T03:25:31.087Z,67.94
2023-05-04T03:27:57.686Z,69.74
2023-05-04T03:30:24.368Z,68.07
2023-05-04T03:32:54.137Z,67.38
2023-05-04T03:35:24.722Z,68.04
2023-05-04T03:37:56.198Z,68.46
2023-05-04T03:40:24.267Z,69.52
2023-05-04T03:42:52.894Z,70.98
2023-05-04T03:45:20.611Z,68.82
2023-05-04T03:47:47.153Z,68.93
2023-05-04T03:50:13.856Z,69.01
2023-05-04T03:52:42.179Z,69.67
2023-05-04T03:55:10.367Z,69.13
2023-05-04T03:57:37.054Z,68.72
2023-05-04T04:00:05.851Z,69.69
2023-05-04T04:02:41.804Z,68.71
2023-05-04T04:05:14.828Z,68.49
2023-05-04T04:07:41.726Z,67.31
2023-05-04T04:10:09.226Z,72.36
2023-05-04T04:12:36.489Z,70.05
2023-05-04T04:15:03.151Z,70.26
2023-05-04T04:17:29.832Z,69.94
2023-05-04T04:19:56.803Z,69.58
2023-05-04T04:22:23.420Z,68.65
2023-05-04T04:24:49.987Z,70.27
2023-05-04T04:27:16.625Z,70.16
2023-05-04T04:29:43.127Z,69.31
2023-05-04T04:32:09.751Z,68.07
2023-05-04T04:34:36.596Z,68.83
2023-05-04T04:37:03.224Z,67.51
2023-05-04T04:39:29.840Z,66.88
2023-05-04T04:41:56.498Z,66.51
2023-05-04T04:44:23.017Z,65.92
2023-05-04T04:46:49.735Z,66.54
2023-05-04T04:49:17.933Z,66.71
2023-05-04T04:51:44.702Z,66.10
2023-05-04T04:54:11.970Z,66.45
2023-05-04T04:56:41.781Z,66.48
2023-05-04T04:59:08.375Z,66.88
2023-05-04T05:01:35.128Z,66.31
2023-05-04T05:04:01.841Z,67.39
2023-05-04T05:06:28.402Z,68.90
2023-05-04T05:08:54.943Z,67.73
2023-05-04T05:11:21.850Z,67.12
2023-05-04T05:13:50.827Z,67.18
2023-05-04T05:16:17.466Z,66.98
2023-05-04T05:18:44.028Z,67.06
2023-05-04T05:21:11.032Z,67.06
2023-05-04T05:23:37.709Z,67.34
2023-05-04T05:26:04.310Z,67.60
2023-05-04T05:28:30.894Z,66.45
2023-05-04T05:30:57.587Z,66.71
2023-05-04T05:33:24.277Z,65.39
2023-05-04T05:35:50.871Z,65.20
2023-05-04T05:38:18.032Z,64.10
2023-05-04T05:40:44.681Z,63.98
2023-05-04T05:43:11.218Z,63.28
2023-05-04T05:45:37.853Z,63.80
2023-05-04T05:48:04.499Z,63.46
2023-05-04T05:50:31.089Z,63.09
2023-05-04T05:52:57.637Z,63.95
2023-05-04T05:55:24.253Z,63.00
2023-05-04T05:57:50.830Z,62.51
2023-05-04T06:00:17.736Z,62.34
2023-05-04T06:02:44.397Z,61.58
2023-05-04T06:05:11.642Z,62.24
2023-05-04T06:07:40.736Z,62.23
2023-05-04T06:10:09.550Z,62.21
2023-05-04T06:12:36.355Z,61.68
2023-05-04T06:15:02.980Z,62.23
2023-05-04T06:17:29.585Z,61.42
2023-05-04T06:19:56.434Z,61.22
2023-05-04T06:22:26.038Z,60.92
2023-05-04T06:24:58.365Z,60.37
2023-05-04T06:27:31.322Z,60.94
2023-05-04T06:29:58.913Z,61.37
2023-05-04T06:32:25.504Z,61.31
2023-05-04T06:35:02.736Z,60.72
2023-05-04T06:37:31.795Z,61.71
2023-05-04T06:39:58.377Z,61.48
2023-05-04T06:42:24.953Z,61.25
2023-05-04T06:44:54.068Z,61.26
2023-05-04T06:47:20.867Z,61.00
2023-05-04T06:49:47.538Z,61.86
2023-05-04T06:52:14.456Z,61.61
2023-05-04T06:54:41.103Z,61.84
2023-05-04T06:57:07.710Z,61.49
2023-05-04T06:59:34.240Z,62.39
2023-05-04T07:02:00.824Z,61.18
2023-05-04T07:04:32.736Z,61.24
2023-05-04T07:06:59.355Z,61.52
2023-05-04T07:09:26.106Z,61.35
2023-05-04T07:11:52.785Z,60.12
2023-05-04T07:14:19.311Z,60.60
2023-05-04T07:16:48.828Z,60.26
2023-05-04T07:19:15.426Z,59.96
2023-05-04T07:21:42.812Z,58.82
2023-05-04T07:24:09.389Z,59.44
2023-05-04T07:26:36.098Z,59.86
2023-05-04T07:29:02.603Z,57.51
2023-05-04T07:31:30.644Z,59.44
2023-05-04T07:33:59.834Z,58.99
2023-05-04T07:36:27.820Z,57.22
2023-05-04T07:38:54.378Z,57.22
2023-05-04T07:41:21.037Z,55.61
2023-05-04T07:43:49.449Z,55.11
2023-05-04T07:46:17.237Z,55.23
2023-05-04T07:48:43.941Z,55.23
2023-05-04T07:51:14.661Z,54.63
2023-05-04T07:53:42.515Z,52.85
2023-05-04T07:56:12.848Z,52.38
2023-05-04T07:58:39.871Z,52.23
2023-05-04T08:01:06.437Z,51.12
2023-05-04T08:03:35.399Z,50.26
2023-05-04T08:06:09.931Z,50.91
2023-05-04T08:08:36.522Z,51.15
2023-05-04T08:11:18.731Z,51.67
2023-05-04T08:13:47.771Z,48.45
2023-05-04T08:16:14.571Z,48.33
2023-05-04T08:18:41.109Z,48.98
2023-05-04T08:21:07.786Z,48.74
2023-05-04T08:23:34.390Z,48.71
2023-05-04T08:26:04.697Z,49.40
2023-05-04T08:28:33.100Z,47.62
2023-05-04T08:30:59.680Z,48.02
2023-05-04T08:33:29.414Z,47.68
2023-05-04T08:35:56.070Z,47.22
2023-05-04T08:38:22.629Z,41.25
2023-05-04T08:40:50.593Z,39.44
2023-05-04T08:43:17.322Z,39.38
2023-05-04T08:45:45.102Z,38.97
2023-05-04T08:48:14.756Z,39.18
2023-05-04T08:50:43.557Z,39.28
2023-05-04T08:53:11.934Z,38.90
2023-05-04T08:55:39.396Z,38.50
2023-05-04T08:58:10.051Z,38.65
2023-05-04T09:00:38.017Z,38.35
2023-05-04T09:03:05.593Z,38.84
2023-05-04T09:05:32.603Z,37.71
2023-05-04T09:07:59.150Z,37.78
2023-05-04T09:10:28.172Z,37.79
2023-05-04T09:12:56.267Z,38.00
2023-05-04T09:15:23.544Z,37.85
2023-05-04T09:18:03.512Z,37.83
2023-05-04T09:20:30.834Z,38.43
2023-05-04T09:23:22.511Z,38.34
2023-05-04T09:25:51.722Z,37.87
2023-05-04T09:28:19.057Z,38.29
2023-05-04T09:30:46.858Z,38.33
2023-05-04T09:33:13.518Z,37.22
2023-05-04T09:35:40.581Z,36.42
2023-05-04T09:38:07.470Z,36.59
2023-05-04T09:40:38.842Z,37.15
2023-05-04T09:43:06.619Z,36.49
2023-05-04T09:45:43.874Z,36.63
2023-05-04T09:48:20.061Z,35.58
2023-05-04T09:50:53.834Z,37.20
2023-05-04T09:53:27.373Z,35.90
2023-05-04T09:56:06.464Z,36.42
2023-05-04T09:58:34.797Z,36.90
2023-05-04T10:01:01.796Z,37.67
2023-05-04T10:03:31.429Z,36.49
2023-05-04T10:05:59.165Z,38.23
2023-05-04T10:08:27.144Z,37.23
2023-05-04T10:10:53.799Z,36.34
2023-05-04T10:13:20.303Z,36.94
2023-05-04T10:16:08.875Z,37.67
2023-05-04T10:18:41.647Z,36.59
2023-05-04T10:21:25.204Z,34.68
2023-05-04T10:23:54.844Z,36.63
2023-05-04T10:26:39.294Z,37.08
2023-05-04T10:29:12.411Z,35.03
2023-05-04T10:31:42.925Z,36.48
2023-05-04T10:34:12.976Z,35.38
2023-05-04T10:36:41.934Z,35.64
2023-05-04T10:39:21.429Z,34.69
2023-05-04T10:42:11.651Z,36.83
2023-05-04T10:45:01.008Z,37.10
2023-05-04T10:47:32.634Z,35.87
2023-05-04T10:50:10.668Z,35.07
2023-05-04T10:52:50.659Z,34.92
2023-05-04T10:55:17.845Z,33.25
2023-05-04T10:57:51.847Z,33.15
2023-05-04T11:00:19.122Z,32.05
2023-05-04T11:02:49.158Z,30.65
2023-05-04T11:05:22.835Z,31.09
2023-05-04T11:07:55.148Z,30.96
2023-05-04T11:10:22.878Z,30.87
2023-05-04T11:12:49.506Z,30.21
2023-05-04T11:15:16.194Z,31.05
2023-05-04T11:17:52.842Z,31.30
2023-05-04T11:20:20.736Z,30.69
2023-05-04T11:22:50.088Z,31.07
2023-05-04T11:25:19.627Z,30.88
2023-05-04T11:27:49.515Z,31.10
2023-05-04T11:30:17.015Z,31.83
2023-05-04T11:32:52.805Z,30.98
2023-05-04T11:35:22.123Z,31.13
2023-05-04T11:37:49.609Z,30.27
2023-05-04T11:40:20.622Z,28.30
2023-05-04T11:42:48.477Z,28.64
2023-05-04T11:45:28.623Z,29.38
2023-05-04T11:47:56.695Z,28.84
2023-05-04T11:50:24.558Z,28.53
2023-05-04T11:52:51.241Z,28.64
2023-05-04T11:55:27.638Z,29.19
2023-05-04T11:58:07.755Z,30.06
2023-05-04T12:00:41.255Z,31.70
2023-05-04T12:03:09.013Z,31.31
2023-05-04T12:05:36.492Z,31.22
2023-05-04T12:08:03.658Z,30.39
2023-05-04T12:10:34.749Z,30.16
2023-05-04T12:13:14.920Z,30.82
2023-05-04T12:15:41.853Z,29.70
2023-05-04T12:18:22.121Z,30.17
2023-05-04T12:20:48.767Z,30.18
2023-05-04T12:23:15.280Z,30.27
2023-05-04T12:25:54.801Z,28.97
2023-05-04T12:28:27.256Z,29.18
2023-05-04T12:30:56.372Z,28.53
2023-05-04T12:33:23.437Z,28.74
2023-05-04T12:35:50.000Z,27.70
2023-05-04T12:38:16.592Z,28.08
2023-05-04T12:40:43.553Z,26.19
2023-05-04T12:43:10.377Z,26.80
2023-05-04T12:45:37.462Z,29.44
2023-05-04T12:48:04.154Z,29.20
2023-05-04T12:50:30.809Z,29.81
2023-05-04T12:52:57.409Z,28.55
2023-05-04T12:55:25.450Z,28.45
2023-05-04T12:57:52.227Z,29.60
2023-05-04T13:00:19.289Z,29.14
2023-05-04T13:02:46.112Z,30.68
2023-05-04T13:05:13.133Z,30.16
2023-05-04T13:07:42.693Z,27.66
2023-05-04T13:10:09.519Z,27.39
2023-05-04T13:12:36.642Z,26.78
2023-05-04T13:15:11.556Z,26.82
2023-05-04T13:17:39.114Z,27.20
2023-05-04T13:20:09.009Z,27.53
2023-05-04T13:22:35.786Z,26.33
2023-05-04T13:25:11.222Z,27.71
2023-05-04T13:27:38.176Z,27.71
2023-05-04T13:30:05.148Z,27.95
2023-05-04T13:32:34.970Z,27.23
2023-05-04T13:35:01.573Z,29.13
2023-05-04T13:37:31.163Z,27.80
2023-05-04T13:39:59.560Z,27.36
2023-05-04T13:42:26.261Z,28.16
2023-05-04T13:44:53.002Z,28.19
2023-05-04T13:47:19.592Z,27.98
2023-05-04T13:49:46.526Z,28.40
2023-05-04T13:52:13.530Z,27.21
2023-05-04T13:54:40.286Z,26.09
2023-05-04T13:57:07.335Z,28.38
2023-05-04T13:59:36.519Z,28.56
2023-05-04T14:02:03.246Z,28.60
2023-05-04T14:04:30.245Z,28.60
2023-05-04T14:06:57.737Z,31.01
2023-05-04T14:09:27.779Z,30.10
2023-05-04T14:11:54.370Z,31.64
2023-05-04T14:14:23.894Z,30.94
2023-05-04T14:16:50.560Z,31.66
2023-05-04T14:19:22.583Z,31.63
2023-05-04T14:21:51.462Z,31.13
2023-05-04T14:24:18.020Z,30.61
2023-05-04T14:26:44.614Z,30.08
2023-05-04T14:29:11.128Z,30.41
2023-05-04T14:31:37.813Z,30.72
2023-05-04T14:34:06.728Z,30.70
2023-05-04T14:36:35.702Z,30.77
2023-05-04T14:39:03.426Z,29.90
2023-05-04T14:41:33.829Z,31.18
2023-05-04T14:44:00.684Z,31.22
2023-05-04T14:46:28.478Z,31.17
2023-05-04T14:48:55.261Z,31.24
2023-05-04T14:51:22.881Z,32.04
2023-05-04T14:53:49.433Z,33.37
2023-05-04T14:56:16.000Z,32.69
2023-05-04T14:58:42.587Z,31.59
2023-05-04T15:01:09.351Z,32.20
2023-05-04T15:03:38.371Z,31.61
2023-05-04T15:06:05.718Z,33.59
2023-05-04T15:08:32.315Z,33.91
2023-05-04T15:10:59.464Z,32.61
2023-05-04T15:13:26.171Z,33.75
2023-05-04T15:15:53.031Z,31.38
2023-05-04T15:18:20.916Z,31.02
2023-05-04T15:20:47.556Z,32.01
2023-05-04T15:23:14.147Z,32.11
2023-05-04T15:25:41.998Z,31.28
2023-05-04T15:28:14.325Z,32.36
2023-05-04T15:30:41.375Z,32.82
2023-05-04T15:33:08.217Z,33.05
2023-05-04T15:35:35.396Z,34.13
2023-05-04T15:38:02.294Z,33.10
2023-05-04T15:40:29.227Z,34.27
2023-05-04T15:42:56.057Z,35.63
2023-05-04T15:45:23.208Z,34.66
2023-05-04T15:47:49.847Z,33.70
2023-05-04T15:50:16.515Z,32.79
2023-05-04T15:52:43.063Z,32.83
2023-05-04T15:55:24.598Z,33.66
2023-05-04T15:57:55.104Z,33.48
2023-05-04T16:00:23.961Z,33.45
2023-05-04T16:02:50.662Z,34.66
2023-05-04T16:05:21.085Z,34.45
2023-05-04T16:07:53.792Z,35.25
2023-05-04T16:10:20.744Z,34.71
2023-05-04T16:12:47.327Z,34.57
2023-05-04T16:15:14.064Z,33.85
2023-05-04T16:17:40.691Z,33.77
2023-05-04T16:20:08.177Z,33.33
2023-05-04T16:22:35.100Z,34.08
2023-05-04T16:25:02.091Z,33.72
2023-05-04T16:27:28.811Z,35.05
2023-05-04T16:29:55.792Z,34.95
2023-05-04T16:32:22.581Z,34.66
2023-05-04T16:34:49.407Z,34.93
2023-05-04T16:37:17.425Z,34.39
2023-05-04T16:39:44.045Z,35.56
2023-05-04T16:42:10.642Z,34.50
2023-05-04T16:44:37.417Z,35.05
2023-05-04T16:47:03.996Z,35.38
2023-05-04T16:49:30.727Z,35.65
2023-05-04T16:51:57.363Z,35.23
2023-05-04T16:54:26.425Z,35.87
2023-05-04T16:56:55.437Z,36.02
2023-05-04T16:59:22.055Z,35.93
2023-05-04T17:01:48.623Z,35.02
2023-05-04T17:04:15.315Z,35.14
2023-05-04T17:06:41.852Z,34.81
2023-05-04T17:09:08.478Z,36.05
2023-05-04T17:11:35.063Z,35.79
2023-05-04T17:14:04.038Z,35.73
2023-05-04T17:16:31.208Z,35.51
2023-05-04T17:19:03.034Z,35.43
2023-05-04T17:21:29.649Z,35.12
2023-05-04T17:23:56.190Z,35.52
2023-05-04T17:26:22.811Z,35.34
2023-05-04T17:28:49.710Z,35.61
2023-05-04T17:31:16.357Z,36.27
2023-05-04T17:33:42.920Z,36.14
2023-05-04T17:36:12.118Z,37.05
2023-05-04T17:38:42.050Z,37.02
2023-05-04T17:41:12.069Z,37.33
2023-05-04T17:43:40.959Z,37.67
2023-05-04T17:46:08.190Z,37.56
2023-05-04T17:48:40.016Z,37.57
2023-05-04T17:51:09.747Z,37.80
2023-05-04T17:53:36.434Z,38.53
2023-05-04T17:56:03.092Z,38.57
2023-05-04T17:58:31.978Z,38.39
2023-05-04T18:01:00.899Z,38.02
2023-05-04T18:03:27.466Z,39.01
2023-05-04T18:05:54.108Z,39.04
2023-05-04T18:08:23.706Z,39.24
2023-05-04T18:10:50.717Z,39.38
2023-05-04T18:13:20.414Z,39.25
2023-05-04T18:15:47.552Z,39.44
2023-05-04T18:18:17.034Z,38.32
2023-05-04T18:20:43.657Z,40.05
2023-05-04T18:23:13.034Z,39.68
2023-05-04T18:25:39.690Z,40.29
2023-05-04T18:28:06.815Z,39.71
2023-05-04T18:30:33.497Z,40.62
2023-05-04T18:33:00.138Z,40.50
2023-05-04T18:35:27.003Z,41.41
2023-05-04T18:37:53.509Z,40.35
2023-05-04T18:40:20.122Z,39.96
2023-05-04T18:42:46.615Z,40.95
2023-05-04T18:45:13.329Z,40.20
2023-05-04T18:47:39.863Z,40.87
2023-05-04T18:50:09.357Z,41.69
2023-05-04T18:52:35.977Z,41.69
2023-05-04T18:55:11.306Z,41.39
2023-05-04T18:57:37.967Z,42.93
2023-05-04T19:00:06.689Z,42.86
2023-05-04T19:02:33.789Z,43.29
2023-05-04T19:05:00.400Z,43.12
2023-05-04T19:07:27.011Z,42.62
2023-05-04T19:09:53.618Z,42.79
2023-05-04T19:12:20.274Z,42.52
2023-05-04T19:14:49.065Z,43.35
2023-05-04T19:17:18.058Z,43.66
2023-05-04T19:19:44.773Z,43.64
2023-05-04T19:22:15.719Z,43.65
2023-05-04T19:24:42.463Z,43.99
2023-05-04T19:27:09.540Z,45.47
2023-05-04T19:29:36.131Z,45.54
2023-05-04T19:32:12.085Z,45.73
2023-05-04T19:34:43.292Z,45.55
2023-05-04T19:37:17.193Z,45.71
2023-05-04T19:39:43.808Z,45.62
2023-05-04T19:42:10.988Z,45.47
2023-05-04T19:44:37.622Z,46.47
2023-05-04T19:47:06.342Z,47.46
2023-05-04T19:49:40.196Z,49.52
2023-05-04T19:52:09.684Z,50.09
2023-05-04T19:54:38.267Z,50.84
2023-05-04T19:57:05.068Z,51.68
2023-05-04T19:59:31.936Z,51.29
2023-05-04T20:01:59.298Z,50.70
2023-05-04T20:04:26.152Z,51.36
2023-05-04T20:06:52.877Z,51.49
2023-05-04T20:09:19.424Z,50.93
2023-05-04T20:11:47.052Z,50.77
2023-05-04T20:14:13.711Z,51.05
2023-05-04T20:16:40.405Z,50.72
2023-05-04T20:19:06.960Z,52.93
2023-05-04T20:21:33.554Z,52.77
2023-05-04T20:24:00.122Z,52.90
2023-05-04T20:26:26.791Z,52.15
2023-05-04T20:28:53.303Z,51.36
2023-05-04T20:31:22.539Z,51.99
2023-05-04T20:33:49.113Z,52.62
2023-05-04T20:36:15.750Z,52.43
2023-05-04T20:38:42.277Z,53.67
2023-05-04T20:41:09.459Z,54.56
2023-05-04T20:43:41.848Z,53.92
2023-05-04T20:46:08.492Z,54.24
2023-05-04T20:48:35.476Z,53.13
2023-05-04T20:51:14.001Z,54.15
2023-05-04T20:53:41.558Z,54.26
2023-05-04T20:56:08.110Z,55.67
2023-05-04T20:58:37.765Z,54.62
2023-05-04T21:01:05.500Z,54.83
2023-05-04T21:03:32.226Z,55.26
2023-05-04T21:05:58.949Z,55.49
2023-05-04T21:08:25.576Z,55.86
2023-05-04T21:10:52.213Z,56.80
2023-05-04T21:13:21.729Z,56.47
2023-05-04T21:15:51.056Z,55.62
2023-05-04T21:18:19.168Z,56.47
2023-05-04T21:20:45.898Z,55.22
2023-05-04T21:23:12.490Z,57.69
2023-05-04T21:25:39.136Z,57.69
2023-05-04T21:28:07.968Z,57.59
2023-05-04T21:30:34.849Z,57.02
2023-05-04T21:33:01.377Z,56.61
2023-05-04T21:35:30.728Z,56.57
2023-05-04T21:37:58.489Z,56.45
2023-05-04T21:40:28.656Z,56.89
2023-05-04T21:42:57.800Z,56.41
2023-05-04T21:45:24.403Z,56.76
2023-05-04T21:47:51.103Z,55.78
2023-05-04T21:50:17.812Z,54.98
2023-05-04T21:52:44.450Z,56.85
2023-05-04T21:55:11.031Z,56.02
2023-05-04T21:57:37.934Z,55.85
2023-05-04T22:00:11.921Z,55.04
2023-05-04T22:02:39.066Z,56.75
2023-05-04T22:05:06.014Z,57.38
2023-05-04T22:07:33.409Z,57.20
2023-05-04T22:10:01.535Z,56.43
2023-05-04T22:12:30.554Z,56.54
2023-05-04T22:14:57.142Z,56.42
2023-05-04T22:17:23.722Z,56.47
2023-05-04T22:19:50.356Z,56.38
2023-05-04T22:22:16.942Z,57.13
2023-05-04T22:24:43.510Z,55.51
2023-05-04T22:27:13.250Z,55.26
2023-05-04T22:29:39.773Z,56.15
2023-05-04T22:32:06.361Z,55.80
2023-05-04T22:34:32.947Z,55.64
2023-05-04T22:37:01.929Z,56.81
2023-05-04T22:39:28.580Z,55.59
2023-05-04T22:41:58.145Z,55.79
2023-05-04T22:44:31.126Z,57.49
2023-05-04T22:46:59.783Z,58.14
2023-05-04T22:49:26.433Z,58.92
2023-05-04T22:51:53.032Z,57.44
2023-05-04T22:54:19.527Z,57.00
2023-05-04T22:56:46.162Z,57.17
2023-05-04T22:59:13.016Z,57.25
2023-05-04T23:01:43.211Z,57.28
2023-05-04T23:04:11.426Z,55.84
2023-05-04T23:06:38.702Z,55.02
2023-05-04T23:09:05.420Z,54.36
2023-05-04T23:11:32.200Z,54.78
2023-05-04T23:13:58.886Z,54.85
2023-05-04T23:16:25.568Z,55.38
2023-05-04T23:18:55.104Z,54.82
2023-05-04T23:21:21.710Z,55.12
2023-05-04T23:23:49.932Z,55.14
2023-05-04T23:26:16.652Z,55.56
2023-05-04T23:28:43.213Z,54.84
2023-05-04T23:31:09.882Z,54.41
2023-05-04T23:33:39.484Z,54.78
2023-05-04T23:36:06.511Z,54.94
2023-05-04T23:38:33.032Z,55.21
2023-05-04T23:41:02.014Z,54.61
2023-05-04T23:43:32.036Z,55.12
2023-05-04T23:45:59.723Z,54.57
2023-05-04T23:48:26.288Z,54.86
2023-05-04T23:50:55.683Z,54.93
2023-05-04T23:53:22.269Z,55.28
2023-05-04T23:55:56.463Z,55.64
2023-05-04T23:58:28.829Z,55.99
